sensor_id;sensor_type;location;lat;lon;timestamp;P1;durP1;ratioP1;P2;durP2;ratioP2
20411;SDS011;10365;52.578;8.138;2023-05-13T00:01:24;19.67;;;15.38;;
20411;SDS011;10365;52.578;8.138;2023-05-13T00:03:49;21.27;;;16.52;;
20411;SDS011;10365;52.578;8.138;2023-05-13T00:06:17;21.63;;;16.33;;
20411;SDS011;10365;52.578;8.138;2023-05-13T00:08:43;18.50;;;15.82;;
20411;SDS011;10365;52.578;8.138;2023-05-13T00:11:08;26.02;;;16.33;;
20411;SDS011;10365;52.578;8.138;2023-05-13T00:13:34;21.52;;;16.48;;
20411;SDS011;10365;52.578;8.138;2023-05-13T00:15:59;18.40;;;15.07;;
20411;SDS011;10365;52.578;8.138;2023-05-13T00:18:25;19.88;;;15.68;;
20411;SDS011;10365;52.578;8.138;2023-05-13T00:20:51;20.33;;;16.58;;
20411;SDS011;10365;52.578;8.138;2023-05-13T00:23:16;20.73;;;15.80;;
20411;SDS011;10365;52.578;8.138;2023-05-13T00:25:42;19.83;;;15.40;;
20411;SDS011;10365;52.578;8.138;2023-05-13T00:28:08;18.17;;;15.65;;
20411;SDS011;10365;52.578;8.138;2023-05-13T00:30:35;21.20;;;15.68;;
20411;SDS011;10365;52.578;8.138;2023-05-13T00:33:00;21.60;;;15.30;;
20411;SDS011;10365;52.578;8.138;2023-05-13T00:35:26;19.88;;;15.50;;
20411;SDS011;10365;52.578;8.138;2023-05-13T00:37:51;21.83;;;15.45;;
20411;SDS011;10365;52.578;8.138;2023-05-13T00:40:21;21.38;;;15.68;;
20411;SDS011;10365;52.578;8.138;2023-05-13T00:42:46;17.85;;;14.85;;
20411;SDS011;10365;52.578;8.138;2023-05-13T00:45:12;21.60;;;14.93;;
20411;SDS011;10365;52.578;8.138;2023-05-13T00:47:38;18.38;;;15.07;;
20411;SDS011;10365;52.578;8.138;2023-05-13T00:50:03;20.60;;;14.48;;
20411;SDS011;10365;52.578;8.138;2023-05-13T00:52:29;19.05;;;14.73;;
20411;SDS011;10365;52.578;8.138;2023-05-13T00:54:54;18.40;;;14.45;;
20411;SDS011;10365;52.578;8.138;2023-05-13T00:57:19;21.20;;;14.50;;
20411;SDS011;10365;52.578;8.138;2023-05-13T00:59:45;19.27;;;15.52;;
20411;SDS011;10365;52.578;8.138;2023-05-13T01:04:43;19.00;;;14.68;;
20411;SDS011;10365;52.578;8.138;2023-05-13T01:09:57;22.88;;;15.73;;
20411;SDS011;10365;52.578;8.138;2023-05-13T01:12:34;19.08;;;14.63;;
20411;SDS011;10365;52.578;8.138;2023-05-13T01:17:34;19.85;;;15.20;;
20411;SDS011;10365;52.578;8.138;2023-05-13T01:20:02;20.80;;;15.23;;
20411;SDS011;10365;52.578;8.138;2023-05-13T01:22:28;18.38;;;13.90;;
20411;SDS011;10365;52.578;8.138;2023-05-13T01:24:54;17.95;;;14.52;;
20411;SDS011;10365;52.578;8.138;2023-05-13T01:27:19;18.90;;;14.55;;
20411;SDS011;10365;52.578;8.138;2023-05-13T01:29:45;24.52;;;16.52;;
20411;SDS011;10365;52.578;8.138;2023-05-13T01:32:14;20.92;;;16.08;;
20411;SDS011;10365;52.578;8.138;2023-05-13T01:34:40;23.73;;;16.55;;
20411;SDS011;10365;52.578;8.138;2023-05-13T01:37:05;21.73;;;17.60;;
20411;SDS011;10365;52.578;8.138;2023-05-13T01:39:31;23.42;;;17.35;;
20411;SDS011;10365;52.578;8.138;2023-05-13T01:42:00;26.13;;;18.35;;
20411;SDS011;10365;52.578;8.138;2023-05-13T01:44:26;23.48;;;17.15;;
20411;SDS011;10365;52.578;8.138;2023-05-13T01:46:51;21.58;;;17.27;;
20411;SDS011;10365;52.578;8.138;2023-05-13T01:49:17;23.30;;;16.25;;
20411;SDS011;10365;52.578;8.138;2023-05-13T01:51:44;25.40;;;16.50;;
20411;SDS011;10365;52.578;8.138;2023-05-13T01:54:09;21.92;;;17.48;;
20411;SDS011;10365;52.578;8.138;2023-05-13T01:56:39;21.95;;;16.48;;
20411;SDS011;10365;52.578;8.138;2023-05-13T01:59:05;20.13;;;16.20;;
20411;SDS011;10365;52.578;8.138;2023-05-13T02:01:30;23.63;;;16.17;;
20411;SDS011;10365;52.578;8.138;2023-05-13T02:03:56;25.15;;;17.45;;
20411;SDS011;10365;52.578;8.138;2023-05-13T02:06:21;22.77;;;16.10;;
20411;SDS011;10365;52.578;8.138;2023-05-13T02:08:47;24.08;;;17.65;;
20411;SDS011;10365;52.578;8.138;2023-05-13T02:11:12;20.98;;;16.40;;
20411;SDS011;10365;52.578;8.138;2023-05-13T02:13:38;26.95;;;17.35;;
20411;SDS011;10365;52.578;8.138;2023-05-13T02:16:03;22.20;;;17.40;;
20411;SDS011;10365;52.578;8.138;2023-05-13T02:18:29;24.70;;;17.58;;
20411;SDS011;10365;52.578;8.138;2023-05-13T02:20:54;22.00;;;16.30;;
20411;SDS011;10365;52.578;8.138;2023-05-13T02:23:20;25.33;;;16.83;;
20411;SDS011;10365;52.578;8.138;2023-05-13T02:25:45;24.92;;;17.30;;
20411;SDS011;10365;52.578;8.138;2023-05-13T02:28:11;22.10;;;17.02;;
20411;SDS011;10365;52.578;8.138;2023-05-13T02:30:36;23.55;;;16.48;;
20411;SDS011;10365;52.578;8.138;2023-05-13T02:33:01;24.52;;;16.48;;
20411;SDS011;10365;52.578;8.138;2023-05-13T02:35:27;30.50;;;17.80;;
20411;SDS011;10365;52.578;8.138;2023-05-13T02:37:54;22.92;;;17.35;;
20411;SDS011;10365;52.578;8.138;2023-05-13T02:40:20;22.58;;;16.50;;
20411;SDS011;10365;52.578;8.138;2023-05-13T02:42:47;20.52;;;15.75;;
20411;SDS011;10365;52.578;8.138;2023-05-13T02:45:15;23.88;;;17.00;;
20411;SDS011;10365;52.578;8.138;2023-05-13T02:47:45;21.63;;;16.70;;
20411;SDS011;10365;52.578;8.138;2023-05-13T02:50:10;25.38;;;17.73;;
20411;SDS011;10365;52.578;8.138;2023-05-13T02:52:37;23.35;;;17.10;;
20411;SDS011;10365;52.578;8.138;2023-05-13T02:55:06;21.42;;;15.90;;
20411;SDS011;10365;52.578;8.138;2023-05-13T02:57:31;20.25;;;15.90;;
20411;SDS011;10365;52.578;8.138;2023-05-13T02:59:57;20.48;;;15.70;;
20411;SDS011;10365;52.578;8.138;2023-05-13T03:02:22;22.55;;;16.40;;
20411;SDS011;10365;52.578;8.138;2023-05-13T03:04:48;21.60;;;16.63;;
20411;SDS011;10365;52.578;8.138;2023-05-13T03:07:13;22.23;;;16.45;;
20411;SDS011;10365;52.578;8.138;2023-05-13T03:09:38;22.42;;;16.88;;
20411;SDS011;10365;52.578;8.138;2023-05-13T03:12:06;26.77;;;16.77;;
20411;SDS011;10365;52.578;8.138;2023-05-13T03:14:32;24.90;;;16.90;;
20411;SDS011;10365;52.578;8.138;2023-05-13T03:16:59;24.23;;;17.38;;
20411;SDS011;10365;52.578;8.138;2023-05-13T03:19:24;25.88;;;17.63;;
20411;SDS011;10365;52.578;8.138;2023-05-13T03:21:49;26.02;;;17.92;;
20411;SDS011;10365;52.578;8.138;2023-05-13T03:24:15;27.15;;;18.92;;
20411;SDS011;10365;52.578;8.138;2023-05-13T03:26:41;24.50;;;17.92;;
20411;SDS011;10365;52.578;8.138;2023-05-13T03:29:06;30.63;;;19.08;;
20411;SDS011;10365;52.578;8.138;2023-05-13T03:31:33;27.85;;;18.65;;
20411;SDS011;10365;52.578;8.138;2023-05-13T03:34:02;32.15;;;19.58;;
20411;SDS011;10365;52.578;8.138;2023-05-13T03:36:28;28.98;;;19.13;;
20411;SDS011;10365;52.578;8.138;2023-05-13T03:38:53;27.08;;;18.45;;
20411;SDS011;10365;52.578;8.138;2023-05-13T03:41:19;21.73;;;17.58;;
20411;SDS011;10365;52.578;8.138;2023-05-13T03:43:46;27.42;;;18.40;;
20411;SDS011;10365;52.578;8.138;2023-05-13T03:46:13;27.38;;;19.48;;
20411;SDS011;10365;52.578;8.138;2023-05-13T03:48:38;23.58;;;18.40;;
20411;SDS011;10365;52.578;8.138;2023-05-13T03:51:04;26.95;;;18.95;;
20411;SDS011;10365;52.578;8.138;2023-05-13T03:53:30;25.17;;;18.38;;
20411;SDS011;10365;52.578;8.138;2023-05-13T03:55:56;29.55;;;18.85;;
20411;SDS011;10365;52.578;8.138;2023-05-13T03:58:21;25.85;;;18.77;;
20411;SDS011;10365;52.578;8.138;2023-05-13T04:00:46;26.17;;;19.05;;
20411;SDS011;10365;52.578;8.138;2023-05-13T04:03:12;26.92;;;18.42;;
20411;SDS011;10365;52.578;8.138;2023-05-13T04:05:38;26.67;;;18.33;;
20411;SDS011;10365;52.578;8.138;2023-05-13T04:08:03;25.02;;;18.50;;
20411;SDS011;10365;52.578;8.138;2023-05-13T04:10:29;24.77;;;19.48;;
20411;SDS011;10365;52.578;8.138;2023-05-13T04:12:56;30.58;;;19.50;;
20411;SDS011;10365;52.578;8.138;2023-05-13T04:15:21;34.33;;;20.25;;
20411;SDS011;10365;52.578;8.138;2023-05-13T04:17:47;26.55;;;19.42;;
20411;SDS011;10365;52.578;8.138;2023-05-13T04:20:12;28.83;;;21.17;;
20411;SDS011;10365;52.578;8.138;2023-05-13T04:22:37;26.77;;;20.25;;
20411;SDS011;10365;52.578;8.138;2023-05-13T04:25:03;27.33;;;20.55;;
20411;SDS011;10365;52.578;8.138;2023-05-13T04:27:28;27.63;;;20.90;;
20411;SDS011;10365;52.578;8.138;2023-05-13T04:30:01;32.90;;;20.58;;
20411;SDS011;10365;52.578;8.138;2023-05-13T04:32:29;32.33;;;20.92;;
20411;SDS011;10365;52.578;8.138;2023-05-13T04:34:55;32.38;;;22.63;;
20411;SDS011;10365;52.578;8.138;2023-05-13T04:37:23;35.92;;;23.08;;
20411;SDS011;10365;52.578;8.138;2023-05-13T04:39:51;38.45;;;25.38;;
20411;SDS011;10365;52.578;8.138;2023-05-13T04:42:20;33.63;;;24.33;;
20411;SDS011;10365;52.578;8.138;2023-05-13T04:44:46;35.05;;;25.23;;
20411;SDS011;10365;52.578;8.138;2023-05-13T04:47:13;36.38;;;23.92;;
20411;SDS011;10365;52.578;8.138;2023-05-13T04:49:38;33.22;;;24.88;;
20411;SDS011;10365;52.578;8.138;2023-05-13T04:52:04;30.17;;;23.63;;
20411;SDS011;10365;52.578;8.138;2023-05-13T04:54:31;28.85;;;21.23;;
20411;SDS011;10365;52.578;8.138;2023-05-13T04:56:59;25.80;;;18.45;;
20411;SDS011;10365;52.578;8.138;2023-05-13T04:59:26;21.85;;;17.10;;
20411;SDS011;10365;52.578;8.138;2023-05-13T05:01:51;18.67;;;14.27;;
20411;SDS011;10365;52.578;8.138;2023-05-13T05:04:16;15.65;;;12.95;;
20411;SDS011;10365;52.578;8.138;2023-05-13T05:06:43;19.40;;;11.50;;
20411;SDS011;10365;52.578;8.138;2023-05-13T05:09:09;14.57;;;11.65;;
20411;SDS011;10365;52.578;8.138;2023-05-13T05:11:34;18.13;;;12.20;;
20411;SDS011;10365;52.578;8.138;2023-05-13T05:14:00;18.58;;;14.38;;
20411;SDS011;10365;52.578;8.138;2023-05-13T05:16:25;18.20;;;13.18;;
20411;SDS011;10365;52.578;8.138;2023-05-13T05:18:51;14.70;;;12.77;;
20411;SDS011;10365;52.578;8.138;2023-05-13T05:21:16;16.48;;;12.43;;
20411;SDS011;10365;52.578;8.138;2023-05-13T05:23:45;14.50;;;12.20;;
20411;SDS011;10365;52.578;8.138;2023-05-13T05:26:18;15.35;;;12.75;;
20411;SDS011;10365;52.578;8.138;2023-05-13T05:29:02;15.73;;;12.23;;
20411;SDS011;10365;52.578;8.138;2023-05-13T05:31:34;13.25;;;10.90;;
20411;SDS011;10365;52.578;8.138;2023-05-13T05:34:02;12.75;;;10.60;;
20411;SDS011;10365;52.578;8.138;2023-05-13T05:36:31;13.25;;;10.00;;
20411;SDS011;10365;52.578;8.138;2023-05-13T05:39:10;17.50;;;11.30;;
20411;SDS011;10365;52.578;8.138;2023-05-13T05:41:43;16.13;;;12.05;;
20411;SDS011;10365;52.578;8.138;2023-05-13T05:44:11;17.42;;;11.85;;
20411;SDS011;10365;52.578;8.138;2023-05-13T05:46:42;13.20;;;10.63;;
20411;SDS011;10365;52.578;8.138;2023-05-13T05:49:17;15.43;;;10.60;;
20411;SDS011;10365;52.578;8.138;2023-05-13T05:52:05;19.75;;;10.60;;
20411;SDS011;10365;52.578;8.138;2023-05-13T05:54:53;13.73;;;9.45;;
20411;SDS011;10365;52.578;8.138;2023-05-13T05:57:28;13.23;;;9.20;;
20411;SDS011;10365;52.578;8.138;2023-05-13T06:00:35;19.60;;;11.25;;
20411;SDS011;10365;52.578;8.138;2023-05-13T06:03:29;22.80;;;11.15;;
20411;SDS011;10365;52.578;8.138;2023-05-13T06:06:21;17.63;;;10.88;;
20411;SDS011;10365;52.578;8.138;2023-05-13T06:08:47;24.35;;;12.30;;
20411;SDS011;10365;52.578;8.138;2023-05-13T06:11:21;19.50;;;12.85;;
20411;SDS011;10365;52.578;8.138;2023-05-13T06:13:47;24.30;;;12.80;;
20411;SDS011;10365;52.578;8.138;2023-05-13T06:16:21;18.77;;;13.90;;
20411;SDS011;10365;52.578;8.138;2023-05-13T06:19:06;17.38;;;13.25;;
20411;SDS011;10365;52.578;8.138;2023-05-13T06:21:41;16.48;;;12.02;;
20411;SDS011;10365;52.578;8.138;2023-05-13T06:24:10;15.77;;;11.57;;
20411;SDS011;10365;52.578;8.138;2023-05-13T06:27:08;14.07;;;11.43;;
20411;SDS011;10365;52.578;8.138;2023-05-13T06:29:45;17.33;;;10.98;;
20411;SDS011;10365;52.578;8.138;2023-05-13T06:32:24;19.25;;;10.40;;
20411;SDS011;10365;52.578;8.138;2023-05-13T06:34:54;16.30;;;9.77;;
20411;SDS011;10365;52.578;8.138;2023-05-13T06:37:35;12.13;;;9.82;;
20411;SDS011;10365;52.578;8.138;2023-05-13T06:40:09;17.45;;;9.93;;
20411;SDS011;10365;52.578;8.138;2023-05-13T06:42:58;14.73;;;10.07;;
20411;SDS011;10365;52.578;8.138;2023-05-13T06:45:29;16.90;;;10.00;;
20411;SDS011;10365;52.578;8.138;2023-05-13T06:47:55;11.60;;;9.43;;
20411;SDS011;10365;52.578;8.138;2023-05-13T06:50:22;9.38;;;8.13;;
20411;SDS011;10365;52.578;8.138;2023-05-13T06:52:47;12.85;;;8.02;;
20411;SDS011;10365;52.578;8.138;2023-05-13T06:55:13;13.85;;;8.20;;
20411;SDS011;10365;52.578;8.138;2023-05-13T06:57:40;14.50;;;8.60;;
20411;SDS011;10365;52.578;8.138;2023-05-13T07:00:09;9.55;;;6.97;;
20411;SDS011;10365;52.578;8.138;2023-05-13T07:02:34;9.10;;;7.30;;
20411;SDS011;10365;52.578;8.138;2023-05-13T07:05:00;11.00;;;7.35;;
20411;SDS011;10365;52.578;8.138;2023-05-13T07:07:27;9.18;;;6.70;;
20411;SDS011;10365;52.578;8.138;2023-05-13T07:09:52;14.35;;;8.05;;
20411;SDS011;10365;52.578;8.138;2023-05-13T07:12:18;8.80;;;6.35;;
20411;SDS011;10365;52.578;8.138;2023-05-13T07:14:43;8.18;;;6.72;;
20411;SDS011;10365;52.578;8.138;2023-05-13T07:17:09;10.18;;;6.45;;
20411;SDS011;10365;52.578;8.138;2023-05-13T07:19:35;12.80;;;6.93;;
20411;SDS011;10365;52.578;8.138;2023-05-13T07:22:00;9.32;;;6.50;;
20411;SDS011;10365;52.578;8.138;2023-05-13T07:24:26;10.35;;;6.35;;
20411;SDS011;10365;52.578;8.138;2023-05-13T07:26:51;6.85;;;5.90;;
20411;SDS011;10365;52.578;8.138;2023-05-13T07:29:17;8.95;;;6.40;;
20411;SDS011;10365;52.578;8.138;2023-05-13T07:31:42;10.15;;;6.65;;
20411;SDS011;10365;52.578;8.138;2023-05-13T07:34:07;8.25;;;6.47;;
20411;SDS011;10365;52.578;8.138;2023-05-13T07:36:32;9.75;;;7.05;;
20411;SDS011;10365;52.578;8.138;2023-05-13T07:38:58;7.00;;;6.18;;
20411;SDS011;10365;52.578;8.138;2023-05-13T07:41:23;7.10;;;6.38;;
20411;SDS011;10365;52.578;8.138;2023-05-13T07:43:49;11.00;;;6.18;;
20411;SDS011;10365;52.578;8.138;2023-05-13T07:46:14;10.57;;;6.55;;
20411;SDS011;10365;52.578;8.138;2023-05-13T07:48:39;10.13;;;6.72;;
20411;SDS011;10365;52.578;8.138;2023-05-13T07:51:05;9.73;;;5.97;;
20411;SDS011;10365;52.578;8.138;2023-05-13T07:53:30;8.27;;;5.43;;
20411;SDS011;10365;52.578;8.138;2023-05-13T07:55:56;11.57;;;6.82;;
20411;SDS011;10365;52.578;8.138;2023-05-13T07:58:21;11.40;;;6.00;;
20411;SDS011;10365;52.578;8.138;2023-05-13T08:00:47;10.13;;;6.60;;
20411;SDS011;10365;52.578;8.138;2023-05-13T08:03:13;10.10;;;5.80;;
20411;SDS011;10365;52.578;8.138;2023-05-13T08:05:39;12.85;;;6.25;;
20411;SDS011;10365;52.578;8.138;2023-05-13T08:08:05;10.23;;;6.30;;
20411;SDS011;10365;52.578;8.138;2023-05-13T08:10:31;9.25;;;6.93;;
20411;SDS011;10365;52.578;8.138;2023-05-13T08:12:56;13.52;;;6.95;;
20411;SDS011;10365;52.578;8.138;2023-05-13T08:15:25;9.60;;;6.57;;
20411;SDS011;10365;52.578;8.138;2023-05-13T08:17:50;11.70;;;6.95;;
20411;SDS011;10365;52.578;8.138;2023-05-13T08:20:18;13.35;;;6.68;;
20411;SDS011;10365;52.578;8.138;2023-05-13T08:22:43;10.85;;;6.20;;
20411;SDS011;10365;52.578;8.138;2023-05-13T08:25:08;9.70;;;6.80;;
20411;SDS011;10365;52.578;8.138;2023-05-13T08:27:35;10.70;;;6.80;;
20411;SDS011;10365;52.578;8.138;2023-05-13T08:30:00;8.52;;;6.30;;
20411;SDS011;10365;52.578;8.138;2023-05-13T08:32:26;9.88;;;7.15;;
20411;SDS011;10365;52.578;8.138;2023-05-13T08:34:51;13.20;;;6.35;;
20411;SDS011;10365;52.578;8.138;2023-05-13T08:37:17;13.82;;;6.78;;
20411;SDS011;10365;52.578;8.138;2023-05-13T08:39:42;10.30;;;6.25;;
20411;SDS011;10365;52.578;8.138;2023-05-13T08:42:08;16.20;;;7.35;;
20411;SDS011;10365;52.578;8.138;2023-05-13T08:44:35;11.65;;;6.40;;
20411;SDS011;10365;52.578;8.138;2023-05-13T08:47:07;10.15;;;7.00;;
20411;SDS011;10365;52.578;8.138;2023-05-13T08:49:35;10.40;;;6.65;;
20411;SDS011;10365;52.578;8.138;2023-05-13T08:52:01;9.98;;;6.45;;
20411;SDS011;10365;52.578;8.138;2023-05-13T08:54:27;18.55;;;7.90;;
20411;SDS011;10365;52.578;8.138;2023-05-13T08:56:53;7.60;;;6.75;;
20411;SDS011;10365;52.578;8.138;2023-05-13T08:59:18;7.53;;;6.43;;
20411;SDS011;10365;52.578;8.138;2023-05-13T09:01:44;9.07;;;6.90;;
20411;SDS011;10365;52.578;8.138;2023-05-13T09:04:09;12.23;;;6.35;;
20411;SDS011;10365;52.578;8.138;2023-05-13T09:06:35;19.30;;;6.63;;
20411;SDS011;10365;52.578;8.138;2023-05-13T09:09:01;11.02;;;6.13;;
20411;SDS011;10365;52.578;8.138;2023-05-13T09:11:27;9.07;;;6.25;;
20411;SDS011;10365;52.578;8.138;2023-05-13T09:13:56;8.90;;;6.20;;
20411;SDS011;10365;52.578;8.138;2023-05-13T09:16:22;13.43;;;6.95;;
20411;SDS011;10365;52.578;8.138;2023-05-13T09:18:47;11.10;;;6.38;;
20411;SDS011;10365;52.578;8.138;2023-05-13T09:21:26;17.15;;;6.32;;
20411;SDS011;10365;52.578;8.138;2023-05-13T09:24:00;11.63;;;5.57;;
20411;SDS011;10365;52.578;8.138;2023-05-13T09:26:27;13.73;;;5.85;;
20411;SDS011;10365;52.578;8.138;2023-05-13T09:29:35;14.85;;;5.97;;
20411;SDS011;10365;52.578;8.138;2023-05-13T09:31:42;11.55;;;6.00;;
20411;SDS011;10365;52.578;8.138;2023-05-13T09:34:07;8.55;;;4.90;;
20411;SDS011;10365;52.578;8.138;2023-05-13T09:36:33;8.55;;;4.45;;
20411;SDS011;10365;52.578;8.138;2023-05-13T09:38:58;8.68;;;5.32;;
20411;SDS011;10365;52.578;8.138;2023-05-13T09:41:26;8.65;;;4.97;;
20411;SDS011;10365;52.578;8.138;2023-05-13T09:43:52;8.13;;;5.28;;
20411;SDS011;10365;52.578;8.138;2023-05-13T09:46:17;8.05;;;5.00;;
20411;SDS011;10365;52.578;8.138;2023-05-13T09:48:42;6.70;;;4.20;;
20411;SDS011;10365;52.578;8.138;2023-05-13T09:51:08;10.30;;;4.28;;
20411;SDS011;10365;52.578;8.138;2023-05-13T09:53:33;10.65;;;5.25;;
20411;SDS011;10365;52.578;8.138;2023-05-13T09:55:58;8.98;;;5.00;;
20411;SDS011;10365;52.578;8.138;2023-05-13T09:58:26;6.53;;;4.80;;
20411;SDS011;10365;52.578;8.138;2023-05-13T10:00:55;8.25;;;5.30;;
20411;SDS011;10365;52.578;8.138;2023-05-13T10:03:20;11.63;;;4.50;;
20411;SDS011;10365;52.578;8.138;2023-05-13T10:05:45;7.00;;;4.95;;
20411;SDS011;10365;52.578;8.138;2023-05-13T10:08:12;8.50;;;4.50;;
20411;SDS011;10365;52.578;8.138;2023-05-13T10:10:38;7.07;;;4.70;;
20411;SDS011;10365;52.578;8.138;2023-05-13T10:13:05;9.43;;;4.35;;
20411;SDS011;10365;52.578;8.138;2023-05-13T10:15:32;5.25;;;4.60;;
20411;SDS011;10365;52.578;8.138;2023-05-13T10:17:58;9.07;;;4.43;;
20411;SDS011;10365;52.578;8.138;2023-05-13T10:20:24;12.77;;;4.22;;
20411;SDS011;10365;52.578;8.138;2023-05-13T10:22:50;7.57;;;3.70;;
20411;SDS011;10365;52.578;8.138;2023-05-13T10:25:16;6.15;;;3.63;;
20411;SDS011;10365;52.578;8.138;2023-05-13T10:27:42;9.70;;;3.63;;
20411;SDS011;10365;52.578;8.138;2023-05-13T10:30:07;12.18;;;4.40;;
20411;SDS011;10365;52.578;8.138;2023-05-13T10:32:35;9.98;;;4.03;;
20411;SDS011;10365;52.578;8.138;2023-05-13T10:42:55;9.90;;;4.32;;
20411;SDS011;10365;52.578;8.138;2023-05-13T10:45:32;10.70;;;3.67;;
20411;SDS011;10365;52.578;8.138;2023-05-13T10:47:57;7.53;;;4.10;;
20411;SDS011;10365;52.578;8.138;2023-05-13T10:50:29;10.43;;;4.30;;
20411;SDS011;10365;52.578;8.138;2023-05-13T10:52:55;9.35;;;3.55;;
20411;SDS011;10365;52.578;8.138;2023-05-13T10:55:22;10.05;;;4.00;;
20411;SDS011;10365;52.578;8.138;2023-05-13T11:00:31;6.05;;;3.97;;
20411;SDS011;10365;52.578;8.138;2023-05-13T11:03:07;4.25;;;3.33;;
20411;SDS011;10365;52.578;8.138;2023-05-13T11:05:32;11.68;;;4.03;;
20411;SDS011;10365;52.578;8.138;2023-05-13T11:07:59;8.07;;;3.80;;
20411;SDS011;10365;52.578;8.138;2023-05-13T11:10:25;9.35;;;3.97;;
20411;SDS011;10365;52.578;8.138;2023-05-13T11:15:49;8.18;;;3.33;;
20411;SDS011;10365;52.578;8.138;2023-05-13T11:18:14;7.70;;;4.18;;
20411;SDS011;10365;52.578;8.138;2023-05-13T11:20:45;7.72;;;4.45;;
20411;SDS011;10365;52.578;8.138;2023-05-13T11:23:18;6.30;;;4.20;;
20411;SDS011;10365;52.578;8.138;2023-05-13T11:25:43;7.95;;;3.80;;
20411;SDS011;10365;52.578;8.138;2023-05-13T11:28:13;6.47;;;4.03;;
20411;SDS011;10365;52.578;8.138;2023-05-13T11:30:38;8.98;;;4.30;;
20411;SDS011;10365;52.578;8.138;2023-05-13T11:33:04;9.60;;;3.90;;
20411;SDS011;10365;52.578;8.138;2023-05-13T11:35:36;9.32;;;3.95;;
20411;SDS011;10365;52.578;8.138;2023-05-13T11:38:02;5.32;;;3.33;;
20411;SDS011;10365;52.578;8.138;2023-05-13T11:42:53;5.80;;;2.65;;
20411;SDS011;10365;52.578;8.138;2023-05-13T11:45:19;5.68;;;2.80;;
20411;SDS011;10365;52.578;8.138;2023-05-13T11:47:46;10.15;;;3.15;;
20411;SDS011;10365;52.578;8.138;2023-05-13T11:50:21;5.93;;;3.05;;
20411;SDS011;10365;52.578;8.138;2023-05-13T11:52:53;6.70;;;3.13;;
20411;SDS011;10365;52.578;8.138;2023-05-13T11:57:53;8.57;;;3.30;;
20411;SDS011;10365;52.578;8.138;2023-05-13T12:02:53;5.80;;;3.33;;
20411;SDS011;10365;52.578;8.138;2023-05-13T12:05:19;7.13;;;3.65;;
20411;SDS011;10365;52.578;8.138;2023-05-13T12:07:44;9.02;;;3.55;;
20411;SDS011;10365;52.578;8.138;2023-05-13T12:10:10;10.13;;;3.22;;
20411;SDS011;10365;52.578;8.138;2023-05-13T12:12:39;8.02;;;2.78;;
20411;SDS011;10365;52.578;8.138;2023-05-13T12:15:09;5.82;;;2.90;;
20411;SDS011;10365;52.578;8.138;2023-05-13T12:17:35;6.07;;;3.10;;
20411;SDS011;10365;52.578;8.138;2023-05-13T12:20:07;7.15;;;3.17;;
20411;SDS011;10365;52.578;8.138;2023-05-13T12:22:34;8.50;;;3.50;;
20411;SDS011;10365;52.578;8.138;2023-05-13T12:24:59;8.32;;;3.08;;
20411;SDS011;10365;52.578;8.138;2023-05-13T12:27:27;8.77;;;3.20;;
20411;SDS011;10365;52.578;8.138;2023-05-13T12:29:56;7.32;;;3.20;;
20411;SDS011;10365;52.578;8.138;2023-05-13T12:32:23;5.82;;;3.33;;
20411;SDS011;10365;52.578;8.138;2023-05-13T12:34:48;7.75;;;2.88;;
20411;SDS011;10365;52.578;8.138;2023-05-13T12:37:14;5.30;;;3.10;;
20411;SDS011;10365;52.578;8.138;2023-05-13T12:39:40;6.43;;;3.45;;
20411;SDS011;10365;52.578;8.138;2023-05-13T12:42:11;15.38;;;3.13;;
20411;SDS011;10365;52.578;8.138;2023-05-13T12:44:37;8.75;;;3.58;;
20411;SDS011;10365;52.578;8.138;2023-05-13T12:47:03;7.38;;;3.65;;
20411;SDS011;10365;52.578;8.138;2023-05-13T12:49:31;5.57;;;3.15;;
20411;SDS011;10365;52.578;8.138;2023-05-13T12:51:56;7.88;;;3.33;;
20411;SDS011;10365;52.578;8.138;2023-05-13T12:54:22;8.82;;;3.85;;
20411;SDS011;10365;52.578;8.138;2023-05-13T12:56:47;4.35;;;3.20;;
20411;SDS011;10365;52.578;8.138;2023-05-13T12:59:16;7.00;;;2.58;;
20411;SDS011;10365;52.578;8.138;2023-05-13T13:01:44;4.90;;;2.60;;
20411;SDS011;10365;52.578;8.138;2023-05-13T13:04:22;5.82;;;2.47;;
20411;SDS011;10365;52.578;8.138;2023-05-13T13:06:56;3.88;;;2.50;;
20411;SDS011;10365;52.578;8.138;2023-05-13T13:09:25;4.95;;;2.42;;
20411;SDS011;10365;52.578;8.138;2023-05-13T13:12:07;4.65;;;3.00;;
20411;SDS011;10365;52.578;8.138;2023-05-13T13:14:35;6.88;;;3.08;;
20411;SDS011;10365;52.578;8.138;2023-05-13T13:17:03;4.40;;;2.83;;
20411;SDS011;10365;52.578;8.138;2023-05-13T13:19:29;5.03;;;2.60;;
20411;SDS011;10365;52.578;8.138;2023-05-13T13:22:02;5.47;;;3.05;;
20411;SDS011;10365;52.578;8.138;2023-05-13T13:25:17;3.17;;;2.60;;
20411;SDS011;10365;52.578;8.138;2023-05-13T13:30:56;4.70;;;3.22;;
20411;SDS011;10365;52.578;8.138;2023-05-13T13:33:29;6.30;;;2.92;;
20411;SDS011;10365;52.578;8.138;2023-05-13T13:36:02;6.32;;;2.60;;
20411;SDS011;10365;52.578;8.138;2023-05-13T13:39:05;4.40;;;3.00;;
20411;SDS011;10365;52.578;8.138;2023-05-13T13:44:55;11.52;;;3.22;;
20411;SDS011;10365;52.578;8.138;2023-05-13T13:47:21;9.43;;;3.08;;
20411;SDS011;10365;52.578;8.138;2023-05-13T13:49:46;7.97;;;3.25;;
20411;SDS011;10365;52.578;8.138;2023-05-13T13:52:12;9.20;;;2.65;;
20411;SDS011;10365;52.578;8.138;2023-05-13T13:54:37;3.75;;;2.80;;
20411;SDS011;10365;52.578;8.138;2023-05-13T13:57:03;6.85;;;3.08;;
20411;SDS011;10365;52.578;8.138;2023-05-13T13:59:28;5.47;;;3.10;;
20411;SDS011;10365;52.578;8.138;2023-05-13T14:01:53;9.30;;;3.15;;
20411;SDS011;10365;52.578;8.138;2023-05-13T14:04:20;12.27;;;3.63;;
20411;SDS011;10365;52.578;8.138;2023-05-13T14:06:48;11.82;;;3.08;;
20411;SDS011;10365;52.578;8.138;2023-05-13T14:09:13;7.80;;;3.40;;
20411;SDS011;10365;52.578;8.138;2023-05-13T14:11:39;6.95;;;3.20;;
20411;SDS011;10365;52.578;8.138;2023-05-13T14:14:04;7.60;;;3.58;;
20411;SDS011;10365;52.578;8.138;2023-05-13T14:16:29;5.68;;;3.40;;
20411;SDS011;10365;52.578;8.138;2023-05-13T14:18:55;8.05;;;3.42;;
20411;SDS011;10365;52.578;8.138;2023-05-13T14:21:20;6.63;;;3.88;;
20411;SDS011;10365;52.578;8.138;2023-05-13T14:23:46;11.70;;;3.75;;
20411;SDS011;10365;52.578;8.138;2023-05-13T14:26:11;5.53;;;3.70;;
20411;SDS011;10365;52.578;8.138;2023-05-13T14:28:39;11.40;;;3.38;;
20411;SDS011;10365;52.578;8.138;2023-05-13T14:31:04;6.78;;;3.50;;
20411;SDS011;10365;52.578;8.138;2023-05-13T14:33:30;10.45;;;3.15;;
20411;SDS011;10365;52.578;8.138;2023-05-13T14:35:55;5.03;;;3.28;;
20411;SDS011;10365;52.578;8.138;2023-05-13T14:38:20;9.18;;;3.60;;
20411;SDS011;10365;52.578;8.138;2023-05-13T14:40:46;5.63;;;3.60;;
20411;SDS011;10365;52.578;8.138;2023-05-13T14:43:11;6.60;;;3.83;;
20411;SDS011;10365;52.578;8.138;2023-05-13T14:45:36;6.75;;;3.60;;
20411;SDS011;10365;52.578;8.138;2023-05-13T14:48:02;10.25;;;3.72;;
20411;SDS011;10365;52.578;8.138;2023-05-13T14:50:27;9.32;;;3.22;;
20411;SDS011;10365;52.578;8.138;2023-05-13T14:52:53;5.63;;;2.90;;
20411;SDS011;10365;52.578;8.138;2023-05-13T14:55:18;9.25;;;3.40;;
20411;SDS011;10365;52.578;8.138;2023-05-13T14:57:43;6.68;;;3.60;;
20411;SDS011;10365;52.578;8.138;2023-05-13T15:00:09;5.85;;;4.10;;
20411;SDS011;10365;52.578;8.138;2023-05-13T15:02:35;10.15;;;3.20;;
20411;SDS011;10365;52.578;8.138;2023-05-13T15:05:00;5.10;;;3.13;;
20411;SDS011;10365;52.578;8.138;2023-05-13T15:07:26;6.18;;;3.25;;
20411;SDS011;10365;52.578;8.138;2023-05-13T15:09:51;7.05;;;2.60;;
20411;SDS011;10365;52.578;8.138;2023-05-13T15:12:17;5.55;;;3.00;;